sensor_id;sensor_type;location;lat;lon;timestamp;pressure;altitude;pressure_sealevel;temperature;humidity
20043;BME280;10182;52.896;6.496;2022-09-01T00:02:43;102169.72;;;14.00;87.89
20043;BME280;10182;52.896;6.496;2022-09-01T00:07:45;102178.69;;;13.97;88.22
20043;BME280;10182;52.896;6.496;2022-09-01T00:12:49;102169.72;;;14.00;86.80
20043;BME280;10182;52.896;6.496;2022-09-01T00:17:50;102174.63;;;13.87;87.63
20043;BME280;10182;52.896;6.496;2022-09-01T00:22:52;102176.78;;;13.77;87.36
20043;BME280;10182;52.896;6.496;2022-09-01T00:27:56;102179.69;;;13.71;87.16
20043;BME280;10182;52.896;6.496;2022-09-01T00:32:59;102179.78;;;13.68;87.26
20043;BME280;10182;52.896;6.496;2022-09-01T00:38:01;102178.84;;;13.69;87.07
20043;BME280;10182;52.896;6.496;2022-09-01T00:43:12;102183.59;;;13.61;86.73
20043;BME280;10182;52.896;6.496;2022-09-01T00:48:14;102182.78;;;13.59;86.72
20043;BME280;10182;52.896;6.496;2022-09-01T00:53:16;102180.06;;;13.60;86.83
20043;BME280;10182;52.896;6.496;2022-09-01T00:58:19;102174.09;;;13.53;86.25
20043;BME280;10182;52.896;6.496;2022-09-01T01:03:21;102168.78;;;13.53;85.56
20043;BME280;10182;52.896;6.496;2022-09-01T01:08:27;102173.59;;;13.42;86.24
20043;BME280;10182;52.896;6.496;2022-09-01T01:13:46;102166.72;;;13.36;86.36
20043;BME280;10182;52.896;6.496;2022-09-01T01:18:48;102167.06;;;13.26;86.93
20043;BME280;10182;52.896;6.496;2022-09-01T01:23:56;102163.59;;;13.24;86.58
20043;BME280;10182;52.896;6.496;2022-09-01T01:29:03;102160.09;;;13.21;86.48
20043;BME280;10182;52.896;6.496;2022-09-01T01:34:08;102160.53;;;13.09;86.87
20043;BME280;10182;52.896;6.496;2022-09-01T01:39:19;102168.75;;;13.03;87.21
20043;BME280;10182;52.896;6.496;2022-09-01T01:44:25;102173.56;;;12.92;87.53
20043;BME280;10182;52.896;6.496;2022-09-01T01:49:28;102167.47;;;12.88;87.43
20043;BME280;10182;52.896;6.496;2022-09-01T01:54:30;102174.59;;;12.88;87.60
20043;BME280;10182;52.896;6.496;2022-09-01T01:59:33;102167.53;;;12.86;86.92
20043;BME280;10182;52.896;6.496;2022-09-01T02:04:35;102168.63;;;12.79;87.50
20043;BME280;10182;52.896;6.496;2022-09-01T02:09:40;102161.06;;;12.67;88.12
20043;BME280;10182;52.896;6.496;2022-09-01T02:14:46;102162.69;;;12.73;87.32
20043;BME280;10182;52.896;6.496;2022-09-01T02:19:49;102165.69;;;12.62;87.58
20043;BME280;10182;52.896;6.496;2022-09-01T02:24:56;102164.75;;;12.63;87.22
20043;BME280;10182;52.896;6.496;2022-09-01T02:30:03;102163.38;;;12.51;88.02
20043;BME280;10182;52.896;6.496;2022-09-01T02:35:10;102163.38;;;12.51;87.50
20043;BME280;10182;52.896;6.496;2022-09-01T02:40:12;102166.28;;;12.43;88.12
20043;BME280;10182;52.896;6.496;2022-09-01T02:45:16;102170.47;;;12.50;87.59
20043;BME280;10182;52.896;6.496;2022-09-01T02:50:19;102173.22;;;12.47;87.20
20043;BME280;10182;52.896;6.496;2022-09-01T02:55:23;102159.16;;;12.44;88.42
20043;BME280;10182;52.896;6.496;2022-09-01T03:00:27;102161.91;;;12.41;88.15
20043;BME280;10182;52.896;6.496;2022-09-01T03:05:32;102155.69;;;12.42;87.72
20043;BME280;10182;52.896;6.496;2022-09-01T03:10:37;102157.50;;;12.41;87.81
20043;BME280;10182;52.896;6.496;2022-09-01T03:15:42;102156.75;;;12.36;88.12
20043;BME280;10182;52.896;6.496;2022-09-01T03:20:45;102158.53;;;12.35;88.50
20043;BME280;10182;52.896;6.496;2022-09-01T03:25:48;102162.31;;;12.28;88.30
20043;BME280;10182;52.896;6.496;2022-09-01T03:30:54;102156.13;;;12.28;87.94
20043;BME280;10182;52.896;6.496;2022-09-01T03:35:57;102151.88;;;12.22;88.10
20043;BME280;10182;52.896;6.496;2022-09-01T03:41:01;102156.38;;;12.20;88.28
20043;BME280;10182;52.896;6.496;2022-09-01T03:46:05;102149.06;;;12.27;87.73
20043;BME280;10182;52.896;6.496;2022-09-01T03:51:09;102155.41;;;12.23;87.76
20043;BME280;10182;52.896;6.496;2022-09-01T03:56:13;102159.97;;;12.17;88.58
20043;BME280;10182;52.896;6.496;2022-09-01T04:01:17;102159.22;;;12.14;88.51
20043;BME280;10182;52.896;6.496;2022-09-01T04:06:20;102160.19;;;12.11;88.32
20043;BME280;10182;52.896;6.496;2022-09-01T04:11:23;102152.34;;;12.07;88.46
20043;BME280;10182;52.896;6.496;2022-09-01T04:16:29;102157.69;;;12.05;88.88
20043;BME280;10182;52.896;6.496;2022-09-01T04:21:49;102156.94;;;12.01;88.96
20043;BME280;10182;52.896;6.496;2022-09-01T04:26:54;102150.78;;;11.99;88.44
20043;BME280;10182;52.896;6.496;2022-09-01T04:32:01;102159.72;;;11.97;88.65
20043;BME280;10182;52.896;6.496;2022-09-01T04:37:09;102149.84;;;12.02;88.66
20043;BME280;10182;52.896;6.496;2022-09-01T04:42:12;102149.84;;;12.02;88.82
20043;BME280;10182;52.896;6.496;2022-09-01T04:47:15;102154.41;;;11.97;89.02
20043;BME280;10182;52.896;6.496;2022-09-01T04:52:19;102152.50;;;12.02;88.52
20043;BME280;10182;52.896;6.496;2022-09-01T04:57:21;102143.63;;;12.03;88.78
20043;BME280;10182;52.896;6.496;2022-09-01T05:02:24;102141.97;;;11.99;89.02
20043;BME280;10182;52.896;6.496;2022-09-01T05:07:28;102140.97;;;12.03;89.03
20043;BME280;10182;52.896;6.496;2022-09-01T05:12:29;102142.78;;;12.01;89.34
20043;BME280;10182;52.896;6.496;2022-09-01T05:17:32;102140.97;;;12.03;89.19
20043;BME280;10182;52.896;6.496;2022-09-01T05:22:37;102138.25;;;12.05;89.04
20043;BME280;10182;52.896;6.496;2022-09-01T05:27:42;102143.13;;;12.18;88.73
20043;BME280;10182;52.896;6.496;2022-09-01T05:32:50;102143.72;;;12.28;88.39
20043;BME280;10182;52.896;6.496;2022-09-01T05:37:52;102143.22;;;12.44;88.05
20043;BME280;10182;52.896;6.496;2022-09-01T05:42:53;102151.47;;;12.63;87.52
20043;BME280;10182;52.896;6.496;2022-09-01T05:47:57;102154.38;;;12.82;86.60
20043;BME280;10182;52.896;6.496;2022-09-01T05:52:59;102156.41;;;13.00;85.98
20043;BME280;10182;52.896;6.496;2022-09-01T05:58:01;102163.00;;;13.15;85.33
20043;BME280;10182;52.896;6.496;2022-09-01T06:03:05;102164.13;;;13.33;84.79
20043;BME280;10182;52.896;6.496;2022-09-01T06:08:08;102166.19;;;13.52;84.67
20043;BME280;10182;52.896;6.496;2022-09-01T06:13:13;102163.69;;;13.71;84.36
20043;BME280;10182;52.896;6.496;2022-09-01T06:18:17;102160.25;;;13.91;83.26
20043;BME280;10182;52.896;6.496;2022-09-01T06:23:20;102165.69;;;14.12;81.94
20043;BME280;10182;52.896;6.496;2022-09-01T06:28:22;102160.56;;;14.29;81.74
20043;BME280;10182;52.896;6.496;2022-09-01T06:33:25;102158.94;;;14.47;81.10
20043;BME280;10182;52.896;6.496;2022-09-01T06:38:27;102160.59;;;14.74;78.82
20043;BME280;10182;52.896;6.496;2022-09-01T06:43:29;102166.59;;;14.79;79.12
20043;BME280;10182;52.896;6.496;2022-09-01T06:48:32;102177.41;;;14.96;77.81
20043;BME280;10182;52.896;6.496;2022-09-01T06:53:34;102178.50;;;15.13;77.88
20043;BME280;10182;52.896;6.496;2022-09-01T06:58:36;102184.81;;;15.31;77.78
20043;BME280;10182;52.896;6.496;2022-09-01T07:03:41;102181.91;;;15.37;76.89
20043;BME280;10182;52.896;6.496;2022-09-01T07:08:43;102181.56;;;15.45;76.20
20043;BME280;10182;52.896;6.496;2022-09-01T07:13:49;102190.25;;;15.69;76.34
20043;BME280;10182;52.896;6.496;2022-09-01T07:18:57;102187.66;;;15.88;75.55
20043;BME280;10182;52.896;6.496;2022-09-01T07:24:00;102182.69;;;16.18;75.00
20043;BME280;10182;52.896;6.496;2022-09-01T07:29:05;102189.97;;;16.34;73.49
20043;BME280;10182;52.896;6.496;2022-09-01T07:34:11;102192.13;;;16.45;72.16
20043;BME280;10182;52.896;6.496;2022-09-01T07:39:14;102187.75;;;16.61;72.10
20043;BME280;10182;52.896;6.496;2022-09-01T07:44:16;102191.47;;;16.76;71.42
20043;BME280;10182;52.896;6.496;2022-09-01T07:49:19;102186.34;;;17.08;70.54
20043;BME280;10182;52.896;6.496;2022-09-01T07:54:20;102181.69;;;17.29;69.68
20043;BME280;10182;52.896;6.496;2022-09-01T07:59:23;102186.53;;;17.38;69.27
20043;BME280;10182;52.896;6.496;2022-09-01T08:04:28;102183.81;;;17.73;68.73
20043;BME280;10182;52.896;6.496;2022-09-01T08:09:31;102189.69;;;17.80;67.73
20043;BME280;10182;52.896;6.496;2022-09-01T08:14:32;102195.63;;;18.03;67.34
20043;BME280;10182;52.896;6.496;2022-09-01T08:19:36;102194.00;;;18.16;66.31
20043;BME280;10182;52.896;6.496;2022-09-01T08:24:38;102203.50;;;18.22;65.68
20043;BME280;10182;52.896;6.496;2022-09-01T08:29:39;102203.69;;;18.35;64.45
20043;BME280;10182;52.896;6.496;2022-09-01T08:34:42;102203.00;;;18.47;64.72
20043;BME280;10182;52.896;6.496;2022-09-01T08:39:44;102205.81;;;18.60;64.20
20043;BME280;10182;52.896;6.496;2022-09-01T08:44:56;102198.53;;;18.78;63.74
20043;BME280;10182;52.896;6.496;2022-09-01T08:50:03;102205.53;;;18.97;62.14
20043;BME280;10182;52.896;6.496;2022-09-01T08:55:11;102198.75;;;19.05;62.32
20043;BME280;10182;52.896;6.496;2022-09-01T09:00:16;102200.72;;;19.32;62.37
20043;BME280;10182;52.896;6.496;2022-09-01T09:05:30;102199.91;;;19.60;59.86
20043;BME280;10182;52.896;6.496;2022-09-01T09:10:40;102191.09;;;19.73;58.19
20043;BME280;10182;52.896;6.496;2022-09-01T09:15:51;102197.81;;;19.80;58.36
20043;BME280;10182;52.896;6.496;2022-09-01T09:20:56;102193.50;;;19.92;57.64
20043;BME280;10182;52.896;6.496;2022-09-01T09:26:03;102191.09;;;20.02;56.49
20043;BME280;10182;52.896;6.496;2022-09-01T09:31:25;102182.03;;;20.17;54.84
20043;BME280;10182;52.896;6.496;2022-09-01T09:36:34;102171.59;;;20.40;54.30
20043;BME280;10182;52.896;6.496;2022-09-01T09:41:38;102174.84;;;20.45;55.61
20043;BME280;10182;52.896;6.496;2022-09-01T09:46:42;102165.75;;;20.60;54.01
20043;BME280;10182;52.896;6.496;2022-09-01T09:51:46;102162.72;;;20.65;53.58
20043;BME280;10182;52.896;6.496;2022-09-01T09:57:02;102160.63;;;20.70;53.29
20043;BME280;10182;52.896;6.496;2022-09-01T10:02:24;102150.78;;;20.96;51.65
20043;BME280;10182;52.896;6.496;2022-09-01T10:07:31;102153.94;;;21.16;50.00
20043;BME280;10182;52.896;6.496;2022-09-01T10:12:33;102148.94;;;20.84;50.42
20043;BME280;10182;52.896;6.496;2022-09-01T10:17:37;102138.69;;;20.76;50.65
20043;BME280;10182;52.896;6.496;2022-09-01T10:22:42;102137.22;;;21.11;48.70
20043;BME280;10182;52.896;6.496;2022-09-01T10:27:48;102131.00;;;21.23;47.72
20043;BME280;10182;52.896;6.496;2022-09-01T10:32:52;102132.16;;;21.32;48.40
20043;BME280;10182;52.896;6.496;2022-09-01T10:37:57;102123.97;;;21.46;46.93
20043;BME280;10182;52.896;6.496;2022-09-01T10:48:40;102122.28;;;21.58;44.04
20043;BME280;10182;52.896;6.496;2022-09-01T10:53:44;102114.28;;;21.57;43.88
20043;BME280;10182;52.896;6.496;2022-09-01T10:58:59;102104.13;;;21.47;43.91
20043;BME280;10182;52.896;6.496;2022-09-01T11:04:04;102103.28;;;21.97;44.87
20043;BME280;10182;52.896;6.496;2022-09-01T11:09:18;102109.91;;;22.17;43.44
20043;BME280;10182;52.896;6.496;2022-09-01T11:14:22;102093.72;;;22.41;42.30
20043;BME280;10182;52.896;6.496;2022-09-01T11:19:37;102097.78;;;22.82;41.52
20043;BME280;10182;52.896;6.496;2022-09-01T11:25:05;102090.81;;;22.44;41.21
20043;BME280;10182;52.896;6.496;2022-09-01T11:30:08;102091.25;;;22.38;42.24
20043;BME280;10182;52.896;6.496;2022-09-01T11:35:15;102095.44;;;22.42;41.95
20043;BME280;10182;52.896;6.496;2022-09-01T11:40:23;102093.69;;;22.65;42.99
20043;BME280;10182;52.896;6.496;2022-09-01T11:45:28;102091.84;;;22.66;41.90
20043;BME280;10182;52.896;6.496;2022-09-01T11:50:34;102080.69;;;22.11;42.82
20043;BME280;10182;52.896;6.496;2022-09-01T11:55:40;102074.06;;;22.15;42.73
20043;BME280;10182;52.896;6.496;2022-09-01T12:00:42;102073.22;;;21.90;42.95
20043;BME280;10182;52.896;6.496;2022-09-01T12:05:45;102064.41;;;22.24;42.99
20043;BME280;10182;52.896;6.496;2022-09-01T12:11:03;102063.44;;;22.38;42.84
20043;BME280;10182;52.896;6.496;2022-09-01T12:16:07;102063.22;;;22.63;42.14
20043;BME280;10182;52.896;6.496;2022-09-01T12:21:25;102070.16;;;21.95;42.59
20043;BME280;10182;52.896;6.496;2022-09-01T12:26:28;102056.00;;;22.28;44.21
20043;BME280;10182;52.896;6.496;2022-09-01T12:31:30;102054.44;;;22.73;42.27
20043;BME280;10182;52.896;6.496;2022-09-01T12:36:34;102068.69;;;22.86;40.46
20043;BME280;10182;52.896;6.496;2022-09-01T12:41:38;102055.63;;;22.57;41.51
20043;BME280;10182;52.896;6.496;2022-09-01T12:46:42;102053.97;;;22.90;40.66
20043;BME280;10182;52.896;6.496;2022-09-01T12:51:43;102058.28;;;22.81;41.64
20043;BME280;10182;52.896;6.496;2022-09-01T12:56:49;102045.66;;;23.05;40.49
20043;BME280;10182;52.896;6.496;2022-09-01T13:01:51;102048.34;;;23.05;40.87
20043;BME280;10182;52.896;6.496;2022-09-01T13:06:55;102033.72;;;23.41;39.33
20043;BME280;10182;52.896;6.496;2022-09-01T13:12:16;102041.72;;;23.31;38.52
20043;BME280;10182;52.896;6.496;2022-09-01T13:17:18;102039.88;;;22.98;39.02
20043;BME280;10182;52.896;6.496;2022-09-01T13:22:20;102030.16;;;22.37;39.67
20043;BME280;10182;52.896;6.496;2022-09-01T13:27:23;102020.25;;;22.49;41.27
20043;BME280;10182;52.896;6.496;2022-09-01T13:32:24;102011.13;;;22.97;40.21
20043;BME280;10182;52.896;6.496;2022-09-01T13:37:26;101996.19;;;23.15;39.87
20043;BME280;10182;52.896;6.496;2022-09-01T13:42:29;102002.16;;;23.42;38.35
20043;BME280;10182;52.896;6.496;2022-09-01T13:47:31;101991.34;;;23.30;38.07
20043;BME280;10182;52.896;6.496;2022-09-01T13:52:33;101980.72;;;23.61;37.69
20043;BME280;10182;52.896;6.496;2022-09-01T13:57:36;101976.28;;;23.72;37.46
20043;BME280;10182;52.896;6.496;2022-09-01T14:02:38;101978.19;;;23.81;36.64
20043;BME280;10182;52.896;6.496;2022-09-01T14:07:40;101984.19;;;23.52;37.58
20043;BME280;10182;52.896;6.496;2022-09-01T14:12:43;101964.69;;;23.81;37.64
20043;BME280;10182;52.896;6.496;2022-09-01T14:17:48;101966.19;;;23.74;37.72
20043;BME280;10182;52.896;6.496;2022-09-01T14:22:50;101959.06;;;23.73;37.07
20043;BME280;10182;52.896;6.496;2022-09-01T14:27:53;101963.03;;;23.57;36.58
20043;BME280;10182;52.896;6.496;2022-09-01T14:32:57;101960.50;;;23.77;36.12
20043;BME280;10182;52.896;6.496;2022-09-01T14:37:59;101956.44;;;23.39;37.26
20043;BME280;10182;52.896;6.496;2022-09-01T14:43:03;101953.91;;;23.26;38.35
20043;BME280;10182;52.896;6.496;2022-09-01T14:48:06;101947.03;;;23.22;37.61
20043;BME280;10182;52.896;6.496;2022-09-01T14:53:09;101943.31;;;23.34;37.11
20043;BME280;10182;52.896;6.496;2022-09-01T14:58:12;101936.06;;;23.35;37.46
20043;BME280;10182;52.896;6.496;2022-09-01T15:03:13;101931.41;;;23.37;36.53
20043;BME280;10182;52.896;6.496;2022-09-01T15:08:15;101926.25;;;23.11;36.53
20043;BME280;10182;52.896;6.496;2022-09-01T15:13:18;101924.78;;;23.07;36.58
20043;BME280;10182;52.896;6.496;2022-09-01T15:18:20;101917.09;;;22.79;37.72
20043;BME280;10182;52.896;6.496;2022-09-01T15:23:24;101922.84;;;22.41;38.68
20043;BME280;10182;52.896;6.496;2022-09-01T15:28:28;101897.56;;;22.42;37.91
20043;BME280;10182;52.896;6.496;2022-09-01T15:33:29;101905.53;;;22.89;36.97
20043;BME280;10182;52.896;6.496;2022-09-01T15:38:31;101894.81;;;23.10;35.36
20043;BME280;10182;52.896;6.496;2022-09-01T15:43:34;101899.03;;;22.91;35.47
20043;BME280;10182;52.896;6.496;2022-09-01T15:48:36;101900.41;;;22.86;36.61
20043;BME280;10182;52.896;6.496;2022-09-01T15:53:38;101897.31;;;22.68;36.58
20043;BME280;10182;52.896;6.496;2022-09-01T15:58:41;101893.38;;;22.60;36.79
20043;BME280;10182;52.896;6.496;2022-09-01T16:03:42;101900.38;;;22.40;37.42
20043;BME280;10182;52.896;6.496;2022-09-01T16:08:45;101893.72;;;22.33;37.88
20043;BME280;10182;52.896;6.496;2022-09-01T16:13:49;101886.41;;;22.35;37.84
20043;BME280;10182;52.896;6.496;2022-09-01T16:18:56;101882.34;;;22.41;38.12
20043;BME280;10182;52.896;6.496;2022-09-01T16:24:04;101879.41;;;22.55;37.73
20043;BME280;10182;52.896;6.496;2022-09-01T16:29:13;101877.69;;;22.65;35.52
20043;BME280;10182;52.896;6.496;2022-09-01T16:34:15;101863.94;;;22.57;35.43
20043;BME280;10182;52.896;6.496;2022-09-01T16:39:25;101870.06;;;22.59;35.53
20043;BME280;10182;52.896;6.496;2022-09-01T16:44:40;101869.59;;;22.54;35.34
20043;BME280;10182;52.896;6.496;2022-09-01T16:49:50;101861.38;;;22.44;35.29
20043;BME280;10182;52.896;6.496;2022-09-01T16:55:02;101862.44;;;22.30;35.62
20043;BME280;10182;52.896;6.496;2022-09-01T17:00:14;101867.69;;;22.21;35.45
20043;BME280;10182;52.896;6.496;2022-09-01T17:05:20;101859.09;;;22.15;35.75
20043;BME280;10182;52.896;6.496;2022-09-01T17:10:32;101855.53;;;22.04;35.94
20043;BME280;10182;52.896;6.496;2022-09-01T17:15:38;101860.44;;;21.98;35.79
20043;BME280;10182;52.896;6.496;2022-09-01T17:20:43;101858.31;;;21.91;36.63
20043;BME280;10182;52.896;6.496;2022-09-01T17:25:50;101860.25;;;21.77;36.79
20043;BME280;10182;52.896;6.496;2022-09-01T17:31:01;101858.25;;;21.68;37.33
20043;BME280;10182;52.896;6.496;2022-09-01T17:36:11;101855.09;;;21.50;38.36
20043;BME280;10182;52.896;6.496;2022-09-01T17:41:24;101864.09;;;21.38;37.99
20043;BME280;10182;52.896;6.496;2022-09-01T17:46:40;101861.47;;;21.25;39.63
20043;BME280;10182;52.896;6.496;2022-09-01T17:51:49;101862.81;;;21.06;40.03
20043;BME280;10182;52.896;6.496;2022-09-01T17:56:58;101851.81;;;20.85;40.60
20043;BME280;10182;52.896;6.496;2022-09-01T18:02:18;101859.47;;;20.66;40.86
20043;BME280;10182;52.896;6.496;2022-09-01T18:07:38;101855.38;;;20.47;42.25
20043;BME280;10182;52.896;6.496;2022-09-01T18:12:49;101858.41;;;20.29;42.21
20043;BME280;10182;52.896;6.496;2022-09-01T18:18:01;101864.75;;;20.16;43.13
20043;BME280;10182;52.896;6.496;2022-09-01T18:23:07;101866.47;;;20.04;44.19
20043;BME280;10182;52.896;6.496;2022-09-01T18:28:09;101869.59;;;19.85;44.53
20043;BME280;10182;52.896;6.496;2022-09-01T18:33:23;101869.84;;;19.67;44.81
20043;BME280;10182;52.896;6.496;2022-09-01T18:38:40;101865.38;;;19.53;44.76
20043;BME280;10182;52.896;6.496;2022-09-01T18:43:48;101866.28;;;19.39;45.52
20043;BME280;10182;52.896;6.496;2022-09-01T18:49:04;101873.25;;;19.29;45.65
20043;BME280;10182;52.896;6.496;2022-09-01T18:54:15;101872.13;;;19.19;45.75
20043;BME280;10182;52.896;6.496;2022-09-01T18:59:32;101874.28;;;18.99;45.64
20043;BME280;10182;52.896;6.496;2022-09-01T19:04:39;101871.34;;;18.89;47.00
20043;BME280;10182;52.896;6.496;2022-09-01T19:09:46;101877.63;;;18.74;46.39
20043;BME280;10182;52.896;6.496;2022-09-01T19:14:57;101875.13;;;18.71;47.26
20043;BME280;10182;52.896;6.496;2022-09-01T19:20:04;101884.84;;;18.59;48.16
20043;BME280;10182;52.896;6.496;2022-09-01T19:25:11;101880.31;;;18.45;48.60
20043;BME280;10182;52.896;6.496;2022-09-01T19:30:30;101896.31;;;18.32;49.49
20043;BME280;10182;52.896;6.496;2022-09-01T19:35:37;101897.56;;;18.26;50.01
20043;BME280;10182;52.896;6.496;2022-09-01T19:40:40;101893.69;;;18.16;49.63
20043;BME280;10182;52.896;6.496;2022-09-01T19:45:52;101901.72;;;18.02;50.01
20043;BME280;10182;52.896;6.496;2022-09-01T19:51:02;101906.25;;;17.85;51.57
20043;BME280;10182;52.896;6.496;2022-09-01T19:56:08;101903.31;;;17.74;51.35
20043;BME280;10182;52.896;6.496;2022-09-01T20:01:14;101909.56;;;17.58;51.91
20043;BME280;10182;52.896;6.496;2022-09-01T20:06:28;101915.97;;;17.40;53.55
20043;BME280;10182;52.896;6.496;2022-09-01T20:11:42;101907.59;;;17.30;55.58
20043;BME280;10182;52.896;6.496;2022-09-01T20:16:48;101914.19;;;17.24;57.99
20043;BME280;10182;52.896;6.496;2022-09-01T20:21:52;101912.00;;;17.15;60.37
20043;BME280;10182;52.896;6.496;2022-09-01T20:26:57;101916.00;;;17.08;61.91
20043;BME280;10182;52.896;6.496;2022-09-01T20:32:02;101918.50;;;16.95;64.46
20043;BME280;10182;52.896;6.496;2022-09-01T20:37:09;101911.59;;;16.91;65.26
20043;BME280;10182;52.896;6.496;2022-09-01T20:42:17;101911.50;;;16.75;66.94
20043;BME280;10182;52.896;6.496;2022-09-01T20:47:21;101916.16;;;16.71;67.77
20043;BME280;10182;52.896;6.496;2022-09-01T20:52:32;101912.94;;;16.65;68.41
20043;BME280;10182;52.896;6.496;2022-09-01T20:57:52;101910.00;;;16.53;69.38
20043;BME280;10182;52.896;6.496;2022-09-01T21:03:01;101908.44;;;16.49;69.85
20043;BME280;10182;52.896;6.496;2022-09-01T21:08:22;101914.88;;;16.45;69.74
20043;BME280;10182;52.896;6.496;2022-09-01T21:13:41;101909.41;;;16.31;70.86
20043;BME280;10182;52.896;6.496;2022-09-01T21:18:55;101909.81;;;16.23;71.17
20043;BME280;10182;52.896;6.496;2022-09-01T21:24:02;101912.09;;;16.13;71.61
20043;BME280;10182;52.896;6.496;2022-09-01T21:29:15;101906.28;;;16.05;71.89
20043;BME280;10182;52.896;6.496;2022-09-01T21:34:20;101904.84;;;15.98;72.28
20043;BME280;10182;52.896;6.496;2022-09-01T21:39:23;101901.78;;;16.05;70.82
20043;BME280;10182;52.896;6.496;2022-09-01T21:44:26;101895.75;;;15.84;72.74
20043;BME280;10182;52.896;6.496;2022-09-01T21:49:29;101896.94;;;15.77;72.48
20043;BME280;10182;52.896;6.496;2022-09-01T21:54:33;101901.97;;;15.66;72.66
20043;BME280;10182;52.896;6.496;2022-09-01T21:59:34;101907.06;;;15.70;72.52
20043;BME280;10182;52.896;6.496;2022-09-01T22:04:37;101895.78;;;15.65;72.17
20043;BME280;10182;52.896;6.496;2022-09-01T22:09:40;101897.25;;;15.53;72.39
20043;BME280;10182;52.896;6.496;2022-09-01T22:14:42;101900.19;;;15.47;71.91
20043;BME280;10182;52.896;6.496;2022-09-01T22:19:44;101902.44;;;15.37;72.58
20043;BME280;10182;52.896;6.496;2022-09-01T22:24:47;101898.28;;;15.32;72.94
20043;BME280;10182;52.896;6.496;2022-09-01T22:29:48;101901.97;;;15.29;71.60
20043;BME280;10182;52.896;6.496;2022-09-01T22:34:51;101896.28;;;15.18;71.46
20043;BME280;10182;52.896;6.496;2022-09-01T22:39:54;101893.19;;;15.08;71.27
20043;BME280;10182;52.896;6.496;2022-09-01T22:44:56;101886.84;;;15.11;69.90
20043;BME280;10182;52.896;6.496;2022-09-01T22:49:58;101888.63;;;15.10;69.51
20043;BME280;10182;52.896;6.496;2022-09-01T22:55:01;101887.84;;;15.08;69.42
20043;BME280;10182;52.896;6.496;2022-09-01T23:00:05;101878.91;;;15.09;67.74
20043;BME280;10182;52.896;6.496;2022-09-01T23:05:08;101872.06;;;15.03;67.50
20043;BME280;10182;52.896;6.496;2022-09-01T23:10:11;101873.59;;;15.09;67.29
20043;BME280;10182;52.896;6.496;2022-09-01T23:15:15;101869.09;;;15.10;66.55
20043;BME280;10182;52.896;6.496;2022-09-01T23:20:17;101869.19;;;15.08;66.02
20043;BME280;10182;52.896;6.496;2022-09-01T23:25:20;101865.50;;;15.11;65.60
20043;BME280;10182;52.896;6.496;2022-09-01T23:30:23;101866.66;;;15.05;65.19
20043;BME280;10182;52.896;6.496;2022-09-01T23:35:25;101861.53;;;15.00;65.59
20043;BME280;10182;52.896;6.496;2022-09-01T23:40:28;101855.19;;;14.84;66.70
20043;BME280;10182;52.896;6.496;2022-09-01T23:45:30;101849.34;;;14.76;66.42
20043;BME280;10182;52.896;6.496;2022-09-01T23:50:31;101849.34;;;14.76;66.72
20043;BME280;10182;52.896;6.496;2022-09-01T23:55:40;101838.44;;;14.61;67.32
